Time;durP1;ratioP1;P1;durP2;ratioP2;P2;SDS_P1;SDS_P2;PMS_P1;PMS_P2;Temp;Humidity;BMP_temperature;BMP_pressure;BME280_temperature;BME280_humidity;BME280_pressure;Samples;Min_cycle;Max_cycle;Signal;HPM_P1;HPM_P2
2023/02/26 00:01:40;;;;;;;6.70;3.93;;;;;;;0.83;63.82;98481.19;5075183;28;40562;-78
2023/02/26 00:04:09;;;;;;;8.47;4.70;;;;;;;1.02;63.47;98497.13;5075283;28;41943;-78
2023/02/26 00:06:51;;;;;;;10.77;5.83;;;;;;;1.02;63.19;98486.69;5091877;28;41626;-78
2023/02/26 00:09:21;;;;;;;10.77;5.30;;;;;;;1.05;62.59;98477.03;5074995;28;39238;-78
2023/02/26 00:11:49;;;;;;;8.27;5.27;;;;;;;1.02;62.69;98466.69;5075165;28;40553;-79
2023/02/26 00:14:17;;;;;;;7.53;4.53;;;;;;;1.30;62.36;98503.22;5075383;28;43025;-79
2023/02/26 00:16:48;;;;;;;8.50;4.67;;;;;;;1.34;62.54;98506.59;5092853;28;42138;-78
2023/02/26 00:19:16;;;;;;;6.27;3.23;;;;;;;1.40;62.62;98511.59;5075349;28;39543;-78
2023/02/26 00:21:47;;;;;;;9.43;3.40;;;;;;;1.13;62.35;98462.91;5092045;28;41698;-78
2023/02/26 00:24:41;;;;;;;;;;;;;;;;;;;;;
2023/02/26 00:27:13;;;;;;;4.27;2.60;;;;;;;1.52;62.39;98526.88;5075073;28;41514;-78
2023/02/26 00:29:42;;;;;;;2.60;2.23;;;;;;;1.49;63.44;98524.34;5075082;28;40044;-78
2023/02/26 00:32:11;;;;;;;3.43;1.90;;;;;;;1.49;63.26;98524.34;5091911;28;41641;-78
2023/02/26 00:34:46;;;;;;;5.47;2.40;;;;;;;1.49;63.33;98520.88;5075087;28;42870;-79
2023/02/26 00:37:27;;;;;;;2.93;1.50;;;;;;;1.31;62.95;98504.94;5075024;28;41295;-79
2023/02/26 00:40:07;;;;;;;6.23;1.87;;;;;;;1.38;62.36;98519.47;5075143;28;39126;-79
2023/02/26 00:42:37;;;;;;;4.87;1.80;;;;;;;1.40;62.90;98519.44;5075039;28;41013;-79
2023/02/26 00:45:07;;;;;;;2.40;1.40;;;;;;;1.41;63.28;98523.75;5091575;28;42572;-78
2023/02/26 00:47:42;;;;;;;1.90;1.20;;;;;;;1.30;63.73;98499.75;5091365;28;42040;-79
2023/02/26 00:50:16;;;;;;;4.50;1.40;;;;;;;1.35;63.35;98505.69;5088872;28;39979;-79
2023/02/26 00:52:53;;;;;;;2.60;1.50;;;;;;;1.13;63.50;98462.91;5090280;28;41592;-79
2023/02/26 00:55:21;;;;;;;3.03;1.57;;;;;;;1.51;63.59;98526.91;5074956;28;41699;-79
2023/02/26 00:57:50;;;;;;;3.00;1.63;;;;;;;1.52;63.84;98519.06;5074402;28;41196;-79
2023/02/26 01:00:18;;;;;;;3.33;1.50;;;;;;;1.42;63.92;98501.97;5074776;28;39999;-79
2023/02/26 01:02:46;;;;;;;3.53;1.77;;;;;;;1.50;64.02;98510.41;5091379;28;41681;-79
2023/02/26 01:05:16;;;;;;;3.03;1.90;;;;;;;1.14;63.71;98454.19;5074752;28;42733;-79
2023/02/26 01:07:48;;;;;;;4.13;1.70;;;;;;;1.58;63.80;98518.88;5074458;28;42046;-79
2023/02/26 01:10:17;;;;;;;3.57;1.60;;;;;;;1.57;63.76;98519.78;5074173;28;38984;-79
2023/02/26 01:12:45;;;;;;;3.40;1.60;;;;;;;1.48;63.95;98512.25;5074218;28;40608;-79
2023/02/26 01:15:16;;;;;;;4.53;1.80;;;;;;;1.55;63.97;98521.56;5074206;28;41563;-79
2023/02/26 01:17:49;;;;;;;3.20;1.67;;;;;;;1.56;64.02;98528.50;5074388;28;42340;-78
2023/02/26 01:20:20;;;;;;;2.43;1.30;;;;;;;1.58;64.05;98523.22;5088464;28;40134;-79
2023/02/26 01:22:53;;;;;;;3.77;1.30;;;;;;;1.60;64.11;98521.44;5090161;28;41727;-79
2023/02/26 01:25:25;;;;;;;1.47;1.23;;;;;;;1.59;64.20;98509.28;5074552;28;42278;-79
2023/02/26 01:27:55;;;;;;;3.77;1.40;;;;;;;1.60;64.30;98519.69;5074438;28;41228;-79
2023/02/26 01:30:26;;;;;;;1.43;1.33;;;;;;;1.62;64.35;98525.69;5074562;28;40289;-78
2023/02/26 01:33:01;;;;;;;2.90;1.40;;;;;;;1.60;63.99;98522.28;5074367;28;40878;-79
2023/02/26 01:35:41;;;;;;;3.10;1.60;;;;;;;1.58;64.11;98529.31;5088541;28;42682;-78
2023/02/26 01:38:20;;;;;;;3.60;1.50;;;;;;;1.55;63.75;98524.19;5074276;28;41449;-80
2023/02/26 01:41:11;;;;;;;2.70;1.80;;;;;;;1.51;64.30;98519.09;5074385;28;39971;-79
2023/02/26 08:13:47;;;;;;;1.40;1.20;;;;;;;0.86;77.06;98978.13;5141623;27;20626;-80
2023/02/26 08:16:15;;;;;;;1.60;1.03;;;;;;;1.41;74.57;98959.47;5130640;27;39767;-80
2023/02/26 08:18:43;;;;;;;1.20;1.10;;;;;;;2.27;71.59;98997.31;5131249;27;41670;-79
2023/02/26 08:21:10;;;;;;;1.37;1.07;;;;;;;2.61;68.76;98971.06;5138021;27;43055;-80
2023/02/26 08:23:38;;;;;;;2.77;0.87;;;;;;;3.07;66.13;99005.47;5121409;27;40821;-80
2023/02/26 08:26:08;;;;;;;1.70;0.80;;;;;;;2.91;64.75;98977.19;5140962;27;38480;-79
2023/02/26 08:28:37;;;;;;;2.13;1.17;;;;;;;3.45;64.08;99021.75;5132954;27;42491;-79
2023/02/26 08:31:07;;;;;;;2.57;1.13;;;;;;;3.61;62.48;99023.84;5129170;27;43748;-78
2023/02/26 08:33:34;;;;;;;1.83;0.83;;;;;;;4.18;61.33;99035.09;5128949;27;40922;-79
2023/02/26 08:36:02;;;;;;;1.10;0.90;;;;;;;4.41;59.69;99048.25;5129264;27;39762;-79
2023/02/26 08:38:31;;;;;;;1.50;0.90;;;;;;;4.47;58.87;99032.31;5111619;27;40659;-78
2023/02/26 08:40:59;;;;;;;2.67;0.90;;;;;;;4.62;59.39;99042.25;5129019;27;41768;-78
2023/02/26 08:43:28;;;;;;;1.10;1.00;;;;;;;4.59;58.93;99052.84;5111602;27;41327;-79
2023/02/26 08:45:58;;;;;;;0.90;0.80;;;;;;;4.48;58.85;99055.00;5111740;27;38765;-79
2023/02/26 08:48:27;;;;;;;1.30;0.90;;;;;;;4.40;58.17;99062.28;5111766;27;41440;-78
2023/02/26 08:50:55;;;;;;;2.23;0.90;;;;;;;4.43;58.12;99067.44;5128609;27;42883;-78
2023/02/26 08:53:23;;;;;;;2.17;1.00;;;;;;;4.18;58.27;99056.06;5111271;27;41375;-79
2023/02/26 08:55:52;;;;;;;1.43;1.00;;;;;;;4.16;58.68;99068.34;5129927;27;39639;-78
2023/02/26 08:58:20;;;;;;;0.90;0.80;;;;;;;4.18;59.16;99079.66;5128431;27;40966;-79
2023/02/26 09:00:48;;;;;;;1.20;0.93;;;;;;;4.27;58.49;99081.94;5128488;27;43381;-77
2023/02/26 09:03:16;;;;;;;1.40;0.90;;;;;;;4.85;58.45;99079.94;5110882;27;42705;-79
2023/02/26 09:05:45;;;;;;;2.00;0.90;;;;;;;5.70;55.30;99093.31;5128295;27;40374;-79
2023/02/26 09:08:14;;;;;;;2.60;1.00;;;;;;;7.13;53.02;99099.66;5145031;27;40925;-79
2023/02/26 09:10:42;;;;;;;2.13;1.20;;;;;;;7.78;50.26;99116.84;5127752;27;41624;-79
2023/02/26 09:13:10;;;;;;;1.10;1.00;;;;;;;8.57;47.85;99150.81;5110743;27;40953;-79
2023/02/26 09:15:38;;;;;;;2.07;1.20;;;;;;;9.06;46.92;99131.63;5128402;27;40716;-79
2023/02/26 09:18:06;;;;;;;2.33;1.43;;;;;;;9.41;46.85;99154.41;5128043;27;41805;-80
2023/02/26 09:20:34;;;;;;;1.40;0.80;;;;;;;9.18;46.82;99165.34;5110716;27;41855;-80
2023/02/26 09:23:03;;;;;;;1.90;0.97;;;;;;;8.21;46.69;99145.53;5125864;27;41088;-79
2023/02/26 09:25:31;;;;;;;1.13;0.90;;;;;;;7.52;48.37;99166.34;5114029;28;39738;-79
2023/02/26 09:27:58;;;;;;;2.17;1.10;;;;;;;7.15;49.00;99155.75;5096885;28;40997;-79
2023/02/26 09:30:26;;;;;;;1.40;0.80;;;;;;;6.77;50.27;99137.19;5114121;28;42920;-80
2023/02/26 09:32:54;;;;;;;1.10;1.00;;;;;;;6.65;51.03;99139.50;5096773;28;43073;-78
2023/02/26 09:35:21;;;;;;;0.90;0.90;;;;;;;6.62;50.91;99142.25;5114033;28;40032;-78
2023/02/26 09:37:50;;;;;;;1.20;0.80;;;;;;;6.64;51.83;99136.00;5148345;27;42012;-80
2023/02/26 09:40:26;;;;;;;1.10;0.70;;;;;;;6.38;51.51;99141.47;5096914;28;43727;-80
2023/02/26 09:43:06;;;;;;;2.37;0.83;;;;;;;6.23;52.97;99150.84;5114140;28;41980;-80
2023/02/26 09:45:38;;;;;;;0.80;0.63;;;;;;;5.88;52.55;99128.59;5112099;28;40727;-79
2023/02/26 09:48:07;;;;;;;0.90;0.90;;;;;;;5.92;52.84;99159.09;5096689;28;40619;-79
2023/02/26 09:50:41;;;;;;;0.80;0.70;;;;;;;5.97;53.57;99145.75;5096429;28;43026;-79
2023/02/26 09:53:17;;;;;;;2.17;0.87;;;;;;;5.99;52.78;99160.56;5113320;28;42037;-80
2023/02/26 09:55:49;;;;;;;0.87;0.70;;;;;;;6.38;52.25;99165.16;5096589;28;38823;-80
2023/02/26 09:58:22;;;;;;;0.90;0.80;;;;;;;7.26;50.65;99179.84;5096910;28;41168;-78
2023/02/26 10:00:59;;;;;;;3.23;0.83;;;;;;;9.77;46.99;99198.34;5113325;28;43191;-80
2023/02/26 10:03:31;;;;;;;2.03;1.17;;;;;;;12.62;42.25;99206.06;5096676;28;41607;-81
2023/02/26 10:06:18;;;;;;;1.80;0.93;;;;;;;13.24;37.98;99233.84;5111711;28;40829;-78
2023/02/26 10:08:55;;;;;;;0.90;0.90;;;;;;;12.47;38.50;99214.09;5096825;28;40430;-78
2023/02/26 10:11:32;;;;;;;1.37;0.73;;;;;;;11.78;38.43;99249.41;5096140;28;41729;-78
2023/02/26 10:14:05;;;;;;;0.80;0.60;;;;;;;10.82;40.56;99250.75;5144802;27;42322;-83
2023/02/26 10:16:38;;;;;;;0.87;0.87;;;;;;;10.10;42.03;99228.28;5096035;28;40539;-79
2023/02/26 10:19:09;;;;;;;1.10;0.70;;;;;;;9.92;42.31;99243.34;5096361;28;41610;-80
2023/02/26 10:21:42;;;;;;;0.90;0.90;;;;;;;9.53;43.00;99217.19;5096135;28;41729;-79
2023/02/26 10:24:16;;;;;;;1.63;0.90;;;;;;;9.18;43.86;99231.38;5110009;28;42104;-83
2023/02/26 10:26:52;;;;;;;1.40;0.73;;;;;;;8.61;43.82;99236.00;5096191;28;39079;-79
2023/02/26 10:29:24;;;;;;;1.00;1.00;;;;;;;8.01;44.96;99230.03;5110300;28;43063;-80
2023/02/26 10:32:06;;;;;;;2.70;1.07;;;;;;;7.40;46.14;99238.06;5111053;28;42678;-80
2023/02/26 10:34:39;;;;;;;2.73;0.87;;;;;;;7.01;47.21;99224.81;5095695;27;41495;-78
2023/02/26 10:37:16;;;;;;;0.83;0.80;;;;;;;6.61;47.94;99204.53;5112737;28;39172;-80
2023/02/26 10:39:49;;;;;;;0.60;0.57;;;;;;;6.57;48.21;99224.00;5111227;28;42661;-80
2023/02/26 10:43:07;;;;;;;;;;;;;;;;;;;;;
2023/02/26 10:45:57;;;;;;;1.27;0.70;;;;;;;6.38;48.18;99186.19;5084495;28;41290;-82
2023/02/26 10:48:40;;;;;;;1.23;0.90;;;;;;;6.52;48.43;99210.19;5096018;28;38958;-77
2023/02/26 10:51:15;;;;;;;1.57;0.70;;;;;;;6.18;48.07;99178.25;5095863;28;40671;-80
2023/02/26 10:53:45;;;;;;;0.77;0.60;;;;;;;6.48;48.23;99216.47;5095976;28;43096;-81
2023/02/26 10:56:17;;;;;;;0.70;0.70;;;;;;;6.20;48.71;99176.41;5112230;28;41977;-81
2023/02/26 10:58:46;;;;;;;1.13;0.67;;;;;;;6.25;48.50;99220.03;5110030;28;40140;-80
2023/02/26 11:01:18;;;;;;;1.30;0.83;;;;;;;6.35;48.64;99220.50;5129517;27;42167;-80
2023/02/26 11:03:48;;;;;;;1.20;0.90;;;;;;;6.33;49.10;99235.50;5144120;27;42652;-80
2023/02/26 11:06:22;;;;;;;1.20;1.10;;;;;;;6.41;49.08;99221.13;5113337;28;43075;-80
2023/02/26 11:08:54;;;;;;;0.60;0.60;;;;;;;6.98;48.64;99229.34;5113056;28;38835;-79
2023/02/26 11:11:48;;;;;;;0.90;0.80;;;;;;;8.14;46.34;99223.25;5109813;28;41544;-79
2023/02/26 11:14:19;;;;;;;1.20;0.90;;;;;;;8.70;46.41;99238.19;5109508;28;43744;-80
2023/02/26 11:16:49;;;;;;;2.50;0.87;;;;;;;8.91;44.95;99252.97;5113356;28;42428;-81
2023/02/26 11:19:20;;;;;;;1.00;0.90;;;;;;;10.03;44.10;99226.88;5095648;28;40331;-80
2023/02/26 11:21:51;;;;;;;1.37;0.80;;;;;;;10.97;40.87;99279.88;5112635;28;41432;-80
2023/02/26 11:24:28;;;;;;;1.30;1.20;;;;;;;10.51;41.94;99267.53;5112209;28;42173;-81
2023/02/26 11:27:01;;;;;;;1.50;1.10;;;;;;;9.88;42.09;99276.19;5111430;28;41996;-81
2023/02/26 11:29:38;;;;;;;0.63;0.63;;;;;;;10.09;42.12;99279.47;5095477;28;38964;-79
2023/02/26 11:32:07;;;;;;;0.70;0.70;;;;;;;10.88;42.57;99269.78;5095281;28;40889;-79
2023/02/26 11:34:37;;;;;;;1.00;0.80;;;;;;;12.20;39.23;99287.56;5095015;28;41685;-82
2023/02/26 11:37:06;;;;;;;0.80;0.77;;;;;;;12.42;37.87;99281.75;5146005;27;41845;-80
2023/02/26 11:39:37;;;;;;;1.83;0.93;;;;;;;12.94;36.71;99297.88;5112155;28;40207;-80
2023/02/26 11:42:05;;;;;;;1.67;1.00;;;;;;;12.72;37.63;99258.53;5094818;28;40575;-80
2023/02/26 11:44:39;;;;;;;2.67;1.00;;;;;;;13.77;37.85;99278.09;5112134;28;43839;-79
2023/02/26 11:47:12;;;;;;;1.03;0.90;;;;;;;13.98;35.84;99297.91;5111447;28;41756;-81
2023/02/26 11:49:44;;;;;;;0.90;0.80;;;;;;;13.48;34.32;99308.47;5112303;28;39844;-81
2023/02/26 11:52:22;;;;;;;0.60;0.60;;;;;;;13.16;34.13;99303.50;5128519;27;40419;-78
2023/02/26 11:55:02;;;;;;;1.23;1.10;;;;;;;13.66;34.40;99297.47;5094423;28;42742;-80
2023/02/26 11:57:32;;;;;;;1.43;1.10;;;;;;;13.80;34.07;99316.97;5111479;28;41910;-79
2023/02/26 12:00:15;;;;;;;0.87;0.80;;;;;;;12.88;35.47;99309.72;5095239;28;38737;-82
2023/02/26 12:02:43;;;;;;;1.10;1.00;;;;;;;11.79;37.16;99301.56;5111359;28;40936;-81
2023/02/26 12:05:16;;;;;;;1.00;0.70;;;;;;;10.60;38.88;99286.41;5094918;28;42297;-81
2023/02/26 12:07:47;;;;;;;0.70;0.70;;;;;;;9.66;40.66;99260.59;5094368;28;41251;-79
2023/02/26 12:10:18;;;;;;;0.73;0.60;;;;;;;9.46;41.47;99270.50;5094671;28;38929;-78
2023/02/26 12:13:01;;;;;;;1.10;0.80;;;;;;;9.09;42.72;99266.22;5111105;28;41746;-79
2023/02/26 12:15:37;;;;;;;0.87;0.67;;;;;;;8.72;43.24;99261.88;5108615;28;42825;-81
2023/02/26 12:18:36;;;;;;;1.60;0.60;;;;;;;8.61;43.34;99262.41;5094285;28;41240;-79
2023/02/26 12:21:15;;;;;;;0.97;0.67;;;;;;;8.27;44.21;99257.84;5086068;28;39350;-80
2023/02/26 12:24:15;;;;;;;1.43;0.73;;;;;;;8.03;44.11;99246.66;5095095;28;41826;-79
2023/02/26 12:26:53;;;;;;;1.37;0.80;;;;;;;7.93;45.23;99253.25;5110946;28;42155;-79
2023/02/26 12:29:37;;;;;;;0.60;0.60;;;;;;;7.39;46.22;99228.44;5094363;28;42564;-79
2023/02/26 12:32:27;;;;;;;1.10;1.00;;;;;;;7.25;46.23;99233.44;5111150;28;38905;-79
2023/02/26 12:35:14;;;;;;;0.80;0.80;;;;;;;7.47;47.45;99228.94;5110073;28;42645;-78
2023/02/26 12:37:53;;;;;;;1.63;1.00;;;;;;;7.67;46.48;99230.69;5128444;27;41675;-79
2023/02/26 12:40:49;;;;;;;1.00;0.90;;;;;;;7.44;45.48;99251.94;5109268;28;43268;-78
2023/02/26 12:43:28;;;;;;;1.17;1.00;;;;;;;7.33;45.53;99246.25;5145579;27;39155;-78
2023/02/26 12:46:07;;;;;;;1.40;0.83;;;;;;;7.44;45.49;99236.13;5108294;28;41682;-79
2023/02/26 12:48:52;;;;;;;0.80;0.80;;;;;;;7.79;45.78;99238.03;5112319;28;42796;-80
2023/02/26 12:51:32;;;;;;;0.83;0.83;;;;;;;7.96;44.29;99247.84;5110801;28;43237;-79
2023/02/26 12:54:17;;;;;;;2.73;1.07;;;;;;;7.89;44.13;99251.69;5109375;28;39761;-81
2023/02/26 12:57:08;;;;;;;0.80;0.80;;;;;;;7.80;44.35;99244.16;5094327;28;40837;-79
2023/02/26 12:59:59;;;;;;;1.03;0.80;;;;;;;7.78;43.51;99264.50;5130329;27;41854;-79
2023/02/26 13:03:00;;;;;;;1.17;1.00;;;;;;;7.56;42.28;99265.44;5094313;28;41170;-80
2023/02/26 13:05:40;;;;;;;1.80;0.70;;;;;;;7.26;42.97;99265.91;5080391;28;38867;-79
2023/02/26 13:08:18;;;;;;;0.77;0.70;;;;;;;7.24;44.59;99262.47;5097279;28;42479;-79
2023/02/26 13:11:06;;;;;;;1.50;0.90;;;;;;;7.18;44.65;99255.69;5097104;28;42842;-78
2023/02/26 13:13:58;;;;;;;1.73;1.00;;;;;;;7.13;43.65;99244.50;5148410;27;41125;-79
2023/02/26 13:16:38;;;;;;;1.03;0.70;;;;;;;7.44;42.46;99258.06;5097686;28;39838;-79
2023/02/26 13:19:16;;;;;;;0.90;0.70;;;;;;;7.48;42.07;99256.16;5112494;28;41663;-81
2023/02/26 13:21:50;;;;;;;1.50;0.80;;;;;;;8.14;41.95;99276.03;5148457;27;41845;-80
2023/02/26 13:24:23;;;;;;;0.97;0.73;;;;;;;8.19;41.46;99299.53;5111478;28;42976;-80
2023/02/26 13:26:54;;;;;;;2.10;0.67;;;;;;;8.20;40.14;99288.91;5113107;28;40698;-80
2023/02/26 13:29:26;;;;;;;0.80;0.67;;;;;;;8.08;39.44;99284.19;5097452;28;41695;-81
2023/02/26 13:31:58;;;;;;;1.33;0.70;;;;;;;8.25;38.96;99297.50;5112851;28;42834;-79
2023/02/26 13:34:39;;;;;;;0.60;0.60;;;;;;;8.45;39.90;99290.44;5096847;28;41228;-80
2023/02/26 13:37:24;;;;;;;0.60;0.60;;;;;;;8.36;40.77;99282.97;5096748;28;38783;-79
2023/02/26 13:40:05;;;;;;;1.37;0.70;;;;;;;7.74;40.22;99289.28;5097265;28;41550;-78
2023/02/26 13:42:38;;;;;;;1.63;0.70;;;;;;;7.44;42.55;99271.22;5112897;28;43678;-79
2023/02/26 13:45:32;;;;;;;1.60;0.60;;;;;;;7.20;42.19;99278.41;5097021;28;41472;-80
2023/02/26 13:48:11;;;;;;;2.07;0.70;;;;;;;6.89;42.95;99256.91;5114063;28;39023;-79
2023/02/26 13:50:49;;;;;;;1.73;0.50;;;;;;;6.95;42.71;99282.13;5114275;28;40752;-80
2023/02/26 13:53:51;;;;;;;1.57;0.80;;;;;;;6.85;42.64;99271.09;5131381;27;41784;-80
2023/02/26 13:56:41;;;;;;;0.90;0.60;;;;;;;6.72;42.31;99270.75;5110710;28;41997;-82
2023/02/26 13:59:30;;;;;;;0.87;0.67;;;;;;;6.66;42.04;99291.22;5113801;28;40074;-79
2023/02/26 14:02:01;;;;;;;0.53;0.53;;;;;;;6.38;42.54;99297.53;5096940;28;41095;-89
2023/02/26 14:04:31;;;;;;;0.67;0.60;;;;;;;6.27;42.43;99305.00;5131439;27;42318;-81
2023/02/26 14:07:00;;;;;;;1.40;0.53;;;;;;;6.39;42.54;99291.38;5096382;28;41934;-81
2023/02/26 14:09:54;;;;;;;0.70;0.70;;;;;;;6.67;42.42;99304.31;5114424;27;40710;-79
2023/02/26 14:12:34;;;;;;;0.70;0.70;;;;;;;6.83;42.98;99304.53;5095334;28;41677;-79
2023/02/26 14:15:42;;;;;;;1.33;0.70;;;;;;;6.94;43.40;99288.31;5111242;28;42627;-79
2023/02/26 14:18:31;;;;;;;0.73;0.70;;;;;;;8.37;42.34;99297.88;5102965;27;43123;-80
2023/02/26 14:21:37;;;;;;;0.83;0.70;;;;;;;9.78;40.31;99311.13;5111413;28;40056;-83
2023/02/26 14:24:15;;;;;;;0.70;0.70;;;;;;;11.51;37.45;99312.06;5113446;28;40816;-79
2023/02/26 14:26:47;;;;;;;0.87;0.70;;;;;;;12.25;34.41;99346.53;5112921;28;43291;-77
2023/02/26 14:29:21;;;;;;;1.03;0.70;;;;;;;13.49;34.90;99345.63;5095913;28;43833;-78
2023/02/26 14:32:04;;;;;;;0.90;0.67;;;;;;;12.88;31.55;99388.63;5112126;28;40076;-76
2023/02/26 14:34:36;;;;;;;1.10;0.70;;;;;;;12.37;33.18;99356.38;5112927;28;43352;-86
2023/02/26 14:37:07;;;;;;;0.50;0.50;;;;;;;12.29;33.18;99366.66;5112225;28;43834;-83
2023/02/26 14:39:39;;;;;;;1.50;1.10;;;;;;;13.06;31.65;99392.78;5096595;28;41717;-84
2023/02/26 14:42:13;;;;;;;1.03;0.87;;;;;;;14.05;31.33;99388.03;5113564;28;40969;-85
2023/02/26 14:44:48;;;;;;;1.50;0.90;;;;;;;13.91;31.01;99392.47;5110716;28;41850;-80
2023/02/26 14:47:16;;;;;;;1.97;0.80;;;;;;;13.05;31.65;99390.22;5145800;27;43536;-84
2023/02/26 14:49:46;;;;;;;1.70;0.80;;;;;;;12.15;32.40;99403.78;5113393;28;43183;-81
2023/02/26 14:52:37;;;;;;;1.57;0.60;;;;;;;10.85;33.32;99397.16;5095535;28;39388;-78
2023/02/26 14:55:33;;;;;;;1.10;0.80;;;;;;;9.83;35.38;99377.88;5109713;28;42822;-76
2023/02/26 14:58:15;;;;;;;1.97;0.97;;;;;;;8.84;35.55;99391.56;5113389;28;43484;-76
2023/02/26 15:00:52;;;;;;;1.20;0.87;;;;;;;8.19;37.34;99371.63;5147268;27;41189;-79
2023/02/26 15:03:47;;;;;;;2.20;0.70;;;;;;;7.93;37.63;99370.13;5112197;28;40105;-77
2023/02/26 15:06:32;;;;;;;1.00;0.60;;;;;;;7.95;38.03;99372.72;5109136;28;41922;-76
2023/02/26 15:09:14;;;;;;;0.80;0.70;;;;;;;7.58;38.65;99332.13;5109332;28;42778;-78
2023/02/26 15:12:02;;;;;;;0.90;0.67;;;;;;;7.61;39.47;99364.53;5094601;28;42280;-78
2023/02/26 15:14:57;;;;;;;0.70;0.67;;;;;;;7.36;39.38;99368.19;5113659;28;40051;-77
2023/02/26 15:17:39;;;;;;;0.80;0.67;;;;;;;7.05;40.38;99368.56;5111981;28;42470;-79
2023/02/26 15:20:20;;;;;;;0.50;0.40;;;;;;;6.84;40.61;99353.63;5109265;28;43674;-79
2023/02/26 15:23:07;;;;;;;0.60;0.60;;;;;;;6.46;40.52;99370.91;5110771;28;42210;-77
2023/02/26 15:25:39;;;;;;;2.20;1.03;;;;;;;6.30;41.35;99361.88;5109032;28;41533;-80
2023/02/26 15:28:11;;;;;;;0.60;0.60;;;;;;;6.01;40.95;99363.78;5095114;28;41053;-79
2023/02/26 15:30:49;;;;;;;0.60;0.60;;;;;;;5.80;40.96;99380.31;5095506;28;42646;-79
2023/02/26 15:33:19;;;;;;;1.33;0.67;;;;;;;5.62;41.18;99383.53;5112639;28;42348;-80
2023/02/26 15:35:50;;;;;;;1.23;0.60;;;;;;;5.46;40.83;99371.84;5111963;28;39953;-79
2023/02/26 15:38:18;;;;;;;0.70;0.70;;;;;;;5.43;41.79;99370.19;5111739;28;41642;-81
2023/02/26 15:40:48;;;;;;;1.20;0.70;;;;;;;5.53;42.03;99383.88;5097707;28;43229;-78
2023/02/26 15:43:20;;;;;;;1.23;0.77;;;;;;;5.53;41.79;99376.00;5160262;27;43173;-77
2023/02/26 15:45:53;;;;;;;1.53;0.70;;;;;;;5.49;41.89;99392.75;5110555;28;38723;-77
2023/02/26 15:48:26;;;;;;;1.83;0.80;;;;;;;5.32;41.81;99381.03;5109965;28;40674;-77
2023/02/26 15:50:57;;;;;;;1.03;0.60;;;;;;;5.20;42.31;99391.94;5123423;28;43386;-76
2023/02/26 15:53:31;;;;;;;1.87;0.80;;;;;;;4.94;42.49;99391.94;5105554;28;42476;-79
2023/02/26 15:56:04;;;;;;;1.77;0.80;;;;;;;4.97;43.47;99378.69;5094865;28;40039;-78
2023/02/26 15:58:38;;;;;;;1.13;0.63;;;;;;;4.95;43.72;99383.97;5111647;28;41651;-78
2023/02/26 16:01:08;;;;;;;0.83;0.83;;;;;;;4.66;43.69;99384.88;5112070;28;41684;-77
2023/02/26 16:03:38;;;;;;;0.77;0.77;;;;;;;4.55;43.39;99365.13;5146418;27;43641;-79
2023/02/26 16:06:11;;;;;;;1.20;0.50;;;;;;;4.57;43.69;99389.56;5094868;28;40303;-78
2023/02/26 16:08:39;;;;;;;1.23;0.70;;;;;;;4.51;43.87;99380.09;5094508;28;40689;-79
2023/02/26 16:11:07;;;;;;;1.33;0.70;;;;;;;4.58;43.62;99386.84;5110968;28;42004;-79
2023/02/26 16:13:39;;;;;;;2.20;1.00;;;;;;;4.52;44.54;99376.56;5094148;28;42341;-79
2023/02/26 16:16:13;;;;;;;0.97;0.80;;;;;;;4.42;45.53;99374.28;5094689;28;39371;-80
2023/02/26 16:18:42;;;;;;;1.13;0.80;;;;;;;4.29;45.81;99381.63;5094765;28;41152;-77
2023/02/26 16:21:23;;;;;;;1.53;0.80;;;;;;;4.15;45.65;99386.41;5111282;28;42996;-78
2023/02/26 16:23:54;;;;;;;2.00;0.73;;;;;;;3.93;45.43;99391.38;5109292;28;42321;-77
2023/02/26 16:26:26;;;;;;;1.63;0.70;;;;;;;3.94;46.08;99393.09;5109802;28;40914;-79
2023/02/26 16:29:00;;;;;;;2.10;0.80;;;;;;;3.77;45.72;99369.97;5111637;28;40564;-79
2023/02/26 16:31:35;;;;;;;2.03;0.77;;;;;;;3.42;46.37;99346.47;5146118;27;41997;-79
2023/02/26 16:34:06;;;;;;;1.57;1.10;;;;;;;3.51;46.88;99382.88;5095453;28;41944;-80
2023/02/26 16:36:40;;;;;;;0.73;0.70;;;;;;;3.52;47.13;99388.09;5114247;28;40300;-79
2023/02/26 16:39:17;;;;;;;2.37;1.07;;;;;;;3.34;47.79;99372.00;5112001;28;41928;-78
2023/02/26 16:41:49;;;;;;;1.00;0.70;;;;;;;3.52;47.83;99400.31;5146777;27;43816;-80
2023/02/26 16:44:41;;;;;;;2.17;1.67;;;;;;;3.44;48.33;99402.28;5115141;28;41331;-79
2023/02/26 16:47:11;;;;;;;2.57;1.10;;;;;;;3.48;48.24;99404.75;5097530;28;39027;-78
2023/02/26 16:49:41;;;;;;;2.03;0.80;;;;;;;3.38;48.97;99407.66;5114600;28;43200;-79
2023/02/26 16:52:14;;;;;;;2.63;0.90;;;;;;;3.23;48.97;99403.66;5114597;28;43779;-79
2023/02/26 16:54:46;;;;;;;1.40;1.27;;;;;;;3.19;49.34;99418.59;5114836;28;42625;-79
2023/02/26 16:57:18;;;;;;;1.33;1.00;;;;;;;2.96;49.28;99410.41;5097891;28;39121;-81
2023/02/26 16:59:53;;;;;;;2.20;1.03;;;;;;;2.87;49.67;99415.84;5111568;28;41544;-80
2023/02/26 17:02:26;;;;;;;2.53;1.27;;;;;;;2.75;49.96;99437.88;5114181;28;41611;-79
2023/02/26 17:04:59;;;;;;;3.00;1.17;;;;;;;2.77;49.82;99435.25;5097571;28;42269;-78
2023/02/26 17:07:32;;;;;;;1.53;1.10;;;;;;;2.58;50.04;99441.78;5114714;28;39934;-80
2023/02/26 17:10:08;;;;;;;1.97;1.33;;;;;;;2.47;50.92;99436.78;5097536;28;40769;-81
2023/02/26 17:12:44;;;;;;;1.17;1.07;;;;;;;2.34;49.08;99446.63;5113488;28;42953;-81
2023/02/26 17:15:19;;;;;;;1.73;1.10;;;;;;;2.24;49.44;99444.19;5097731;28;41297;-78
2023/02/26 17:17:49;;;;;;;1.77;0.90;;;;;;;2.19;49.35;99451.28;5097313;28;39941;-78
2023/02/26 17:20:17;;;;;;;2.37;1.27;;;;;;;2.11;50.03;99454.00;5114052;28;42784;-78
2023/02/26 17:22:45;;;;;;;2.07;1.13;;;;;;;2.01;49.72;99468.13;5113800;28;42641;-81
2023/02/26 17:25:17;;;;;;;0.97;0.80;;;;;;;1.94;50.00;99461.31;5097165;28;41361;-78
2023/02/26 17:27:46;;;;;;;1.33;1.00;;;;;;;1.84;50.24;99459.75;5148718;27;40173;-78
2023/02/26 17:30:19;;;;;;;1.53;1.00;;;;;;;1.66;50.26;99472.22;5097079;28;40856;-80
2023/02/26 17:32:48;;;;;;;1.40;1.20;;;;;;;1.65;50.75;99475.72;5097253;28;43255;-78
2023/02/26 17:35:18;;;;;;;2.97;1.23;;;;;;;1.58;50.47;99484.56;5114998;28;42655;-78
2023/02/26 17:37:47;;;;;;;2.37;1.37;;;;;;;1.51;50.30;99475.09;5114189;28;40591;-77
2023/02/26 17:40:22;;;;;;;1.93;1.40;;;;;;;1.50;50.36;99481.19;5096674;28;40801;-78
2023/02/26 17:42:50;;;;;;;2.57;1.10;;;;;;;1.48;50.50;99492.56;5096597;28;42785;-79
2023/02/26 17:45:19;;;;;;;1.87;1.10;;;;;;;1.34;50.66;99492.78;5096044;28;40529;-80
2023/02/26 17:47:49;;;;;;;1.47;1.17;;;;;;;1.32;50.23;99495.41;5113543;28;39024;-79
2023/02/26 17:50:28;;;;;;;1.77;1.10;;;;;;;1.34;50.59;99501.47;5114794;28;42934;-80
2023/02/26 17:52:56;;;;;;;1.70;1.30;;;;;;;1.26;51.05;99499.84;5096835;28;42082;-77
2023/02/26 17:55:24;;;;;;;1.53;1.17;;;;;;;1.20;51.14;99497.34;5147931;27;42028;-79
2023/02/26 17:57:52;;;;;;;2.13;1.13;;;;;;;1.14;51.31;99507.84;5113362;28;40106;-80
2023/02/26 18:00:20;;;;;;;1.93;1.20;;;;;;;1.06;51.00;99495.78;5114440;28;41716;-79
2023/02/26 18:02:50;;;;;;;1.47;1.20;;;;;;;1.13;51.35;99516.56;5113003;28;42719;-78
2023/02/26 18:05:18;;;;;;;2.97;1.20;;;;;;;1.10;51.08;99509.66;5113531;28;42392;-79
2023/02/26 18:07:46;;;;;;;1.70;1.20;;;;;;;0.98;51.45;99502.88;5147762;27;39795;-80
2023/02/26 18:10:18;;;;;;;1.97;1.10;;;;;;;1.04;51.42;99515.81;5147631;27;40756;-79
2023/02/26 18:12:46;;;;;;;1.60;1.30;;;;;;;0.89;51.65;99502.97;5112660;28;43970;-79
2023/02/26 18:15:14;;;;;;;1.27;1.07;;;;;;;0.79;51.71;99488.34;5113293;28;42575;-78
2023/02/26 18:17:43;;;;;;;2.17;1.20;;;;;;;0.79;51.84;99495.28;5113183;28;38708;-80
2023/02/26 18:20:21;;;;;;;3.43;1.57;;;;;;;0.74;52.05;99487.53;5113303;28;41714;-79
2023/02/26 18:22:49;;;;;;;2.53;1.50;;;;;;;0.79;52.42;99496.16;5113222;28;42864;-79
2023/02/26 18:25:18;;;;;;;3.10;1.83;;;;;;;0.81;52.66;99510.03;5113135;28;42447;-79
2023/02/26 18:27:53;;;;;;;4.60;1.87;;;;;;;0.74;52.70;99503.19;5095933;28;38932;-78
2023/02/26 18:30:26;;;;;;;2.80;1.53;;;;;;;0.78;52.58;99520.50;5110222;28;42751;-79
2023/02/26 18:32:54;;;;;;;3.47;1.80;;;;;;;0.73;52.93;99519.72;5111981;28;43129;-79
2023/02/26 18:35:26;;;;;;;5.13;2.30;;;;;;;0.46;53.94;99481.81;5095934;28;41010;-80
2023/02/26 18:37:55;;;;;;;5.27;2.33;;;;;;;0.65;53.74;99531.94;5129874;27;40365;-80
2023/02/26 18:40:25;;;;;;;3.60;2.30;;;;;;;0.61;53.89;99522.47;5095770;28;40933;-79
2023/02/26 18:42:53;;;;;;;5.90;2.70;;;;;;;0.58;54.39;99533.78;5095319;28;41974;-78
2023/02/26 18:45:21;;;;;;;3.67;2.37;;;;;;;0.55;54.41;99527.72;5112881;28;43304;-79
2023/02/26 18:47:49;;;;;;;3.97;2.13;;;;;;;0.36;55.11;99503.66;5147137;27;40061;-79
2023/02/26 18:50:18;;;;;;;3.97;2.20;;;;;;;0.34;55.25;99506.25;5095477;28;42134;-81